sensor_id;sensor_type;location;lat;lon;timestamp;pressure;altitude;pressure_sealevel;temperature;humidity
18749;BME280;9503;53.560;10.246;2022-08-30T00:02:12;101610.13;;;17.36;94.40
18749;BME280;9503;53.560;10.246;2022-08-30T00:04:39;101602.31;;;17.34;94.57
18749;BME280;9503;53.560;10.246;2022-08-30T00:07:07;101598.00;;;17.35;95.06
18749;BME280;9503;53.560;10.246;2022-08-30T00:09:33;101592.81;;;17.35;94.89
18749;BME280;9503;53.560;10.246;2022-08-30T00:12:01;101593.56;;;17.32;94.77
18749;BME280;9503;53.560;10.246;2022-08-30T00:14:30;101594.34;;;17.30;94.79
18749;BME280;9503;53.560;10.246;2022-08-30T00:16:57;101591.72;;;17.28;94.77
18749;BME280;9503;53.560;10.246;2022-08-30T00:19:28;101590.34;;;17.14;94.87
18749;BME280;9503;53.560;10.246;2022-08-30T00:21:55;101589.53;;;17.15;95.21
18749;BME280;9503;53.560;10.246;2022-08-30T00:24:23;101594.69;;;17.15;94.69
18749;BME280;9503;53.560;10.246;2022-08-30T00:26:49;101590.44;;;17.17;94.63
18749;BME280;9503;53.560;10.246;2022-08-30T00:29:16;101586.13;;;17.18;94.45
18749;BME280;9503;53.560;10.246;2022-08-30T00:31:43;101590.56;;;17.20;94.77
18749;BME280;9503;53.560;10.246;2022-08-30T00:34:10;101595.81;;;17.22;94.49
18749;BME280;9503;53.560;10.246;2022-08-30T00:36:38;101599.31;;;17.24;94.22
18749;BME280;9503;53.560;10.246;2022-08-30T00:39:06;101598.44;;;17.23;94.15
18749;BME280;9503;53.560;10.246;2022-08-30T00:41:32;101594.13;;;17.24;94.03
18749;BME280;9503;53.560;10.246;2022-08-30T00:43:59;101602.84;;;17.26;94.06
18749;BME280;9503;53.560;10.246;2022-08-30T00:46:26;101609.72;;;17.25;93.90
18749;BME280;9503;53.560;10.246;2022-08-30T00:48:53;101606.25;;;17.25;93.99
18749;BME280;9503;53.560;10.246;2022-08-30T00:51:22;101607.16;;;17.25;93.98
18749;BME280;9503;53.560;10.246;2022-08-30T00:53:53;101609.84;;;17.28;93.91
18749;BME280;9503;53.560;10.246;2022-08-30T00:56:23;101607.22;;;17.27;94.18
18749;BME280;9503;53.560;10.246;2022-08-30T00:58:54;101613.22;;;17.26;94.16
18749;BME280;9503;53.560;10.246;2022-08-30T01:01:22;101616.75;;;17.28;94.15
18749;BME280;9503;53.560;10.246;2022-08-30T01:03:49;101614.16;;;17.28;94.34
18749;BME280;9503;53.560;10.246;2022-08-30T01:06:17;101615.03;;;17.28;94.56
18749;BME280;9503;53.560;10.246;2022-08-30T01:08:45;101615.69;;;17.23;94.68
18749;BME280;9503;53.560;10.246;2022-08-30T01:11:16;101622.66;;;17.24;94.84
18749;BME280;9503;53.560;10.246;2022-08-30T01:13:44;101617.47;;;17.24;94.58
18749;BME280;9503;53.560;10.246;2022-08-30T01:16:12;101624.09;;;17.16;94.53
18749;BME280;9503;53.560;10.246;2022-08-30T01:18:38;101627.41;;;17.11;94.96
18749;BME280;9503;53.560;10.246;2022-08-30T01:21:10;101629.94;;;17.10;94.65
18749;BME280;9503;53.560;10.246;2022-08-30T01:23:44;101625.53;;;17.07;94.90
18749;BME280;9503;53.560;10.246;2022-08-30T01:26:12;101630.06;;;17.13;94.88
18749;BME280;9503;53.560;10.246;2022-08-30T01:28:39;101638.94;;;17.20;94.73
18749;BME280;9503;53.560;10.246;2022-08-30T01:31:07;101634.84;;;17.26;94.25
18749;BME280;9503;53.560;10.246;2022-08-30T01:33:35;101635.81;;;17.30;94.03
18749;BME280;9503;53.560;10.246;2022-08-30T01:36:05;101641.00;;;17.30;93.54
18749;BME280;9503;53.560;10.246;2022-08-30T01:38:37;101642.69;;;17.28;93.73
18749;BME280;9503;53.560;10.246;2022-08-30T01:41:11;101642.06;;;17.35;93.40
18749;BME280;9503;53.560;10.246;2022-08-30T01:43:39;101638.41;;;17.30;93.09
18749;BME280;9503;53.560;10.246;2022-08-30T01:46:05;101638.59;;;17.34;93.14
18749;BME280;9503;53.560;10.246;2022-08-30T01:48:33;101644.81;;;17.39;92.46
18749;BME280;9503;53.560;10.246;2022-08-30T01:50:59;101637.09;;;17.41;92.03
18749;BME280;9503;53.560;10.246;2022-08-30T01:53:26;101642.22;;;17.39;92.04
18749;BME280;9503;53.560;10.246;2022-08-30T01:55:53;101629.41;;;17.44;91.60
18749;BME280;9503;53.560;10.246;2022-08-30T01:58:22;101633.59;;;17.40;91.08
18749;BME280;9503;53.560;10.246;2022-08-30T02:00:49;101629.41;;;17.44;91.05
18749;BME280;9503;53.560;10.246;2022-08-30T02:03:16;101639.78;;;17.44;90.68
18749;BME280;9503;53.560;10.246;2022-08-30T02:05:44;101625.13;;;17.45;90.40
18749;BME280;9503;53.560;10.246;2022-08-30T02:08:11;101626.91;;;17.47;90.08
18749;BME280;9503;53.560;10.246;2022-08-30T02:10:37;101625.19;;;17.48;90.11
18749;BME280;9503;53.560;10.246;2022-08-30T02:13:04;101614.66;;;17.42;89.62
18749;BME280;9503;53.560;10.246;2022-08-30T02:15:32;101610.91;;;17.33;90.25
18749;BME280;9503;53.560;10.246;2022-08-30T02:17:59;101619.56;;;17.34;90.06
18749;BME280;9503;53.560;10.246;2022-08-30T02:20:26;101619.56;;;17.34;90.26
18749;BME280;9503;53.560;10.246;2022-08-30T02:22:52;101620.31;;;17.31;90.40
18749;BME280;9503;53.560;10.246;2022-08-30T02:25:19;101615.97;;;17.30;90.51
18749;BME280;9503;53.560;10.246;2022-08-30T02:27:46;101616.59;;;17.23;91.03
18749;BME280;9503;53.560;10.246;2022-08-30T02:30:12;101616.44;;;17.19;91.29
18749;BME280;9503;53.560;10.246;2022-08-30T02:32:40;101615.59;;;17.20;91.13
18749;BME280;9503;53.560;10.246;2022-08-30T02:35:08;101619.13;;;17.22;91.38
18749;BME280;9503;53.560;10.246;2022-08-30T02:37:35;101619.97;;;17.21;91.24
18749;BME280;9503;53.560;10.246;2022-08-30T02:40:02;101615.47;;;17.17;91.74
18749;BME280;9503;53.560;10.246;2022-08-30T02:42:30;101618.13;;;17.18;91.55
18749;BME280;9503;53.560;10.246;2022-08-30T02:44:56;101617.41;;;17.22;91.32
18749;BME280;9503;53.560;10.246;2022-08-30T02:47:23;101618.28;;;17.23;91.62
18749;BME280;9503;53.560;10.246;2022-08-30T02:49:51;101616.72;;;17.26;91.33
18749;BME280;9503;53.560;10.246;2022-08-30T02:52:18;101627.88;;;17.25;91.15
18749;BME280;9503;53.560;10.246;2022-08-30T02:54:45;101621.75;;;17.23;91.36
18749;BME280;9503;53.560;10.246;2022-08-30T02:57:12;101625.28;;;17.25;91.16
18749;BME280;9503;53.560;10.246;2022-08-30T02:59:42;101620.88;;;17.23;91.47
18749;BME280;9503;53.560;10.246;2022-08-30T03:02:10;101619.22;;;17.25;91.01
18749;BME280;9503;53.560;10.246;2022-08-30T03:04:38;101615.00;;;17.27;91.18
18749;BME280;9503;53.560;10.246;2022-08-30T03:07:06;101626.38;;;17.32;90.75
18749;BME280;9503;53.560;10.246;2022-08-30T03:09:34;101625.47;;;17.30;90.85
18749;BME280;9503;53.560;10.246;2022-08-30T03:12:01;101620.50;;;17.36;90.86
18749;BME280;9503;53.560;10.246;2022-08-30T03:14:29;101615.97;;;17.30;91.12
18749;BME280;9503;53.560;10.246;2022-08-30T03:16:56;101621.09;;;17.29;90.87
18749;BME280;9503;53.560;10.246;2022-08-30T03:19:23;101622.78;;;17.27;91.17
18749;BME280;9503;53.560;10.246;2022-08-30T03:21:50;101619.09;;;17.20;91.23
18749;BME280;9503;53.560;10.246;2022-08-30T03:24:19;101622.38;;;17.16;91.48
18749;BME280;9503;53.560;10.246;2022-08-30T03:26:46;101619.97;;;17.21;91.02
18749;BME280;9503;53.560;10.246;2022-08-30T03:29:13;101617.47;;;17.24;91.13
18749;BME280;9503;53.560;10.246;2022-08-30T03:31:41;101625.25;;;17.24;91.42
18749;BME280;9503;53.560;10.246;2022-08-30T03:34:08;101615.75;;;17.24;91.05
18749;BME280;9503;53.560;10.246;2022-08-30T03:36:36;101614.72;;;17.19;91.15
18749;BME280;9503;53.560;10.246;2022-08-30T03:39:04;101626.69;;;17.16;91.70
18749;BME280;9503;53.560;10.246;2022-08-30T03:41:33;101622.56;;;17.21;91.30
18749;BME280;9503;53.560;10.246;2022-08-30T03:44:01;101624.22;;;17.19;91.53
18749;BME280;9503;53.560;10.246;2022-08-30T03:46:34;101629.31;;;17.17;91.29
18749;BME280;9503;53.560;10.246;2022-08-30T03:49:03;101625.00;;;17.18;91.28
18749;BME280;9503;53.560;10.246;2022-08-30T03:51:31;101625.09;;;17.19;91.40
18749;BME280;9503;53.560;10.246;2022-08-30T03:53:58;101621.44;;;17.14;91.45
18749;BME280;9503;53.560;10.246;2022-08-30T03:56:25;101621.50;;;17.16;91.11
18749;BME280;9503;53.560;10.246;2022-08-30T03:58:53;101620.66;;;17.17;91.32
18749;BME280;9503;53.560;10.246;2022-08-30T04:01:19;101623.25;;;17.17;91.46
18749;BME280;9503;53.560;10.246;2022-08-30T04:03:46;101618.84;;;17.14;91.35
18749;BME280;9503;53.560;10.246;2022-08-30T04:06:13;101623.22;;;17.15;91.54
18749;BME280;9503;53.560;10.246;2022-08-30T04:08:40;101620.72;;;17.18;91.00
18749;BME280;9503;53.560;10.246;2022-08-30T04:11:07;101620.06;;;17.24;90.76
18749;BME280;9503;53.560;10.246;2022-08-30T04:13:35;101620.22;;;17.28;90.84
18749;BME280;9503;53.560;10.246;2022-08-30T04:16:04;101623.69;;;17.29;90.80
18749;BME280;9503;53.560;10.246;2022-08-30T04:18:30;101624.63;;;17.31;90.77
18749;BME280;9503;53.560;10.246;2022-08-30T04:20:57;101623.56;;;17.26;90.89
18749;BME280;9503;53.560;10.246;2022-08-30T04:23:27;101622.59;;;17.22;91.02
18749;BME280;9503;53.560;10.246;2022-08-30T04:25:55;101622.50;;;17.19;91.31
18749;BME280;9503;53.560;10.246;2022-08-30T04:28:23;101625.16;;;17.21;91.43
18749;BME280;9503;53.560;10.246;2022-08-30T04:30:50;101619.19;;;17.23;91.37
18749;BME280;9503;53.560;10.246;2022-08-30T04:33:18;101625.28;;;17.25;91.27
18749;BME280;9503;53.560;10.246;2022-08-30T04:35:47;101623.44;;;17.21;91.51
18749;BME280;9503;53.560;10.246;2022-08-30T04:38:16;101619.22;;;17.25;91.33
18749;BME280;9503;53.560;10.246;2022-08-30T04:40:45;101615.81;;;17.26;90.93
18749;BME280;9503;53.560;10.246;2022-08-30T04:43:12;101615.97;;;17.30;91.13
18749;BME280;9503;53.560;10.246;2022-08-30T04:45:40;101622.03;;;17.31;91.33
18749;BME280;9503;53.560;10.246;2022-08-30T04:48:08;101627.25;;;17.32;91.12
18749;BME280;9503;53.560;10.246;2022-08-30T04:50:36;101625.69;;;17.36;90.96
18749;BME280;9503;53.560;10.246;2022-08-30T04:53:03;101632.78;;;17.42;90.98
18749;BME280;9503;53.560;10.246;2022-08-30T04:55:31;101628.63;;;17.47;90.40
18749;BME280;9503;53.560;10.246;2022-08-30T04:57:58;101629.41;;;17.44;90.50
18749;BME280;9503;53.560;10.246;2022-08-30T05:00:25;101634.91;;;17.53;90.53
18749;BME280;9503;53.560;10.246;2022-08-30T05:02:52;101643.16;;;17.42;90.70
18749;BME280;9503;53.560;10.246;2022-08-30T05:05:19;101638.56;;;17.58;90.36
18749;BME280;9503;53.560;10.246;2022-08-30T05:08:05;101647.25;;;17.60;90.46
18749;BME280;9503;53.560;10.246;2022-08-30T05:10:33;101649.09;;;17.63;90.77
18749;BME280;9503;53.560;10.246;2022-08-30T05:13:00;101651.88;;;17.69;90.36
18749;BME280;9503;53.560;10.246;2022-08-30T05:15:28;101660.81;;;17.77;90.03
18749;BME280;9503;53.560;10.246;2022-08-30T05:17:55;101662.91;;;17.87;89.96
18749;BME280;9503;53.560;10.246;2022-08-30T05:20:22;101660.38;;;17.89;89.59
18749;BME280;9503;53.560;10.246;2022-08-30T05:22:48;101659.44;;;17.87;89.70
18749;BME280;9503;53.560;10.246;2022-08-30T05:25:18;101662.34;;;17.96;89.62
18749;BME280;9503;53.560;10.246;2022-08-30T05:27:45;101659.19;;;18.06;89.48
18749;BME280;9503;53.560;10.246;2022-08-30T05:30:14;101662.63;;;18.05;88.76
18749;BME280;9503;53.560;10.246;2022-08-30T05:32:41;101664.78;;;18.18;88.62
18749;BME280;9503;53.560;10.246;2022-08-30T05:35:12;101663.19;;;18.22;88.26
18749;BME280;9503;53.560;10.246;2022-08-30T05:37:39;101660.63;;;18.23;88.12
18749;BME280;9503;53.560;10.246;2022-08-30T05:40:08;101656.97;;;18.17;88.44
18749;BME280;9503;53.560;10.246;2022-08-30T05:42:36;101658.25;;;18.30;88.04
18749;BME280;9503;53.560;10.246;2022-08-30T05:45:05;101668.03;;;18.11;88.55
18749;BME280;9503;53.560;10.246;2022-08-30T05:47:32;101659.81;;;17.99;88.87
18749;BME280;9503;53.560;10.246;2022-08-30T05:49:58;101663.44;;;18.30;88.72
18749;BME280;9503;53.560;10.246;2022-08-30T05:52:25;101671.31;;;18.33;87.77
18749;BME280;9503;53.560;10.246;2022-08-30T05:54:53;101667.50;;;18.21;87.71
18749;BME280;9503;53.560;10.246;2022-08-30T05:57:23;101663.28;;;18.25;87.70
18749;BME280;9503;53.560;10.246;2022-08-30T05:59:51;101667.34;;;18.44;87.63
18749;BME280;9503;53.560;10.246;2022-08-30T06:02:18;101659.41;;;18.66;86.90
18749;BME280;9503;53.560;10.246;2022-08-30T06:04:44;101670.31;;;18.56;86.47
18749;BME280;9503;53.560;10.246;2022-08-30T06:07:11;101669.81;;;18.66;86.78
18749;BME280;9503;53.560;10.246;2022-08-30T06:09:38;101670.06;;;18.75;86.51
18749;BME280;9503;53.560;10.246;2022-08-30T06:12:04;101672.94;;;18.85;85.11
18749;BME280;9503;53.560;10.246;2022-08-30T06:14:31;101668.63;;;18.85;85.38
18749;BME280;9503;53.560;10.246;2022-08-30T06:17:02;101673.97;;;18.90;85.76
18749;BME280;9503;53.560;10.246;2022-08-30T06:19:29;101668.56;;;18.84;85.77
18749;BME280;9503;53.560;10.246;2022-08-30T06:21:55;101670.03;;;19.04;85.13
18749;BME280;9503;53.560;10.246;2022-08-30T06:24:22;101676.63;;;19.23;84.80
18749;BME280;9503;53.560;10.246;2022-08-30T06:26:49;101676.59;;;19.21;84.51
18749;BME280;9503;53.560;10.246;2022-08-30T06:29:19;101675.75;;;19.22;84.07
18749;BME280;9503;53.560;10.246;2022-08-30T06:31:46;101678.13;;;19.15;84.12
18749;BME280;9503;53.560;10.246;2022-08-30T06:34:14;101673.78;;;19.14;84.74
18749;BME280;9503;53.560;10.246;2022-08-30T06:36:42;101680.69;;;19.13;85.05
18749;BME280;9503;53.560;10.246;2022-08-30T06:39:09;101682.13;;;19.32;84.67
18749;BME280;9503;53.560;10.246;2022-08-30T06:41:38;101678.16;;;19.16;85.08
18749;BME280;9503;53.560;10.246;2022-08-30T06:44:06;101681.22;;;19.01;85.66
18749;BME280;9503;53.560;10.246;2022-08-30T06:46:36;101680.88;;;19.19;85.09
18749;BME280;9503;53.560;10.246;2022-08-30T06:49:04;101676.97;;;19.03;86.03
18749;BME280;9503;53.560;10.246;2022-08-30T06:51:38;101683.97;;;19.38;85.20
18749;BME280;9503;53.560;10.246;2022-08-30T06:54:06;101682.34;;;19.41;84.95
18749;BME280;9503;53.560;10.246;2022-08-30T06:56:33;101687.03;;;19.86;84.31
18749;BME280;9503;53.560;10.246;2022-08-30T06:59:00;101690.91;;;20.38;82.03
18749;BME280;9503;53.560;10.246;2022-08-30T07:01:28;101684.59;;;19.92;81.87
18749;BME280;9503;53.560;10.246;2022-08-30T07:03:56;101691.25;;;20.15;82.24
18749;BME280;9503;53.560;10.246;2022-08-30T07:06:24;101685.16;;;19.49;83.72
18749;BME280;9503;53.560;10.246;2022-08-30T07:08:53;101679.97;;;19.49;85.13
18749;BME280;9503;53.560;10.246;2022-08-30T07:11:26;101688.47;;;19.75;84.85
18749;BME280;9503;53.560;10.246;2022-08-30T07:13:56;101697.34;;;19.51;84.75
18749;BME280;9503;53.560;10.246;2022-08-30T07:16:24;101698.44;;;19.58;84.86
18749;BME280;9503;53.560;10.246;2022-08-30T07:18:52;101687.94;;;19.55;85.87
18749;BME280;9503;53.560;10.246;2022-08-30T07:21:25;101692.19;;;19.53;86.49
18749;BME280;9503;53.560;10.246;2022-08-30T07:23:56;101689.09;;;19.65;85.92
18749;BME280;9503;53.560;10.246;2022-08-30T07:26:26;101697.06;;;19.71;85.69
18749;BME280;9503;53.560;10.246;2022-08-30T07:28:53;101698.22;;;20.17;84.26
18749;BME280;9503;53.560;10.246;2022-08-30T07:31:21;101692.16;;;20.18;83.61
18749;BME280;9503;53.560;10.246;2022-08-30T07:33:49;101696.09;;;20.00;84.18
18749;BME280;9503;53.560;10.246;2022-08-30T07:36:17;101698.38;;;20.23;82.73
18749;BME280;9503;53.560;10.246;2022-08-30T07:38:46;101702.13;;;19.99;83.80
18749;BME280;9503;53.560;10.246;2022-08-30T07:41:20;101715.59;;;20.51;82.23
18749;BME280;9503;53.560;10.246;2022-08-30T07:43:49;101711.09;;;20.83;80.53
18749;BME280;9503;53.560;10.246;2022-08-30T07:46:17;101708.50;;;20.84;80.37
18749;BME280;9503;53.560;10.246;2022-08-30T07:48:46;101713.50;;;20.74;80.28
18749;BME280;9503;53.560;10.246;2022-08-30T07:51:14;101705.03;;;20.85;80.76
18749;BME280;9503;53.560;10.246;2022-08-30T07:53:41;101706.25;;;20.60;81.32
18749;BME280;9503;53.560;10.246;2022-08-30T07:56:08;101716.47;;;20.51;80.94
18749;BME280;9503;53.560;10.246;2022-08-30T07:58:36;101711.69;;;20.71;81.34
18749;BME280;9503;53.560;10.246;2022-08-30T08:01:04;101724.72;;;21.10;80.54
18749;BME280;9503;53.560;10.246;2022-08-30T08:03:32;101716.94;;;21.12;79.86
18749;BME280;9503;53.560;10.246;2022-08-30T08:06:00;101718.72;;;21.57;78.13
18749;BME280;9503;53.560;10.246;2022-08-30T08:08:28;101723.31;;;21.26;78.44
18749;BME280;9503;53.560;10.246;2022-08-30T08:10:54;101719.56;;;21.56;78.30
18749;BME280;9503;53.560;10.246;2022-08-30T08:13:21;101717.53;;;21.86;77.77
18749;BME280;9503;53.560;10.246;2022-08-30T08:15:49;101719.31;;;21.42;78.43
18749;BME280;9503;53.560;10.246;2022-08-30T08:18:16;101727.53;;;21.21;79.04
18749;BME280;9503;53.560;10.246;2022-08-30T08:20:43;101729.81;;;21.45;78.56
18749;BME280;9503;53.560;10.246;2022-08-30T08:23:09;101725.41;;;21.44;78.82
18749;BME280;9503;53.560;10.246;2022-08-30T08:25:40;101728.38;;;21.61;77.58
18749;BME280;9503;53.560;10.246;2022-08-30T08:28:07;101733.16;;;21.38;77.86
18749;BME280;9503;53.560;10.246;2022-08-30T08:30:36;101733.47;;;21.14;78.07
18749;BME280;9503;53.560;10.246;2022-08-30T08:33:05;101738.53;;;21.45;77.78
18749;BME280;9503;53.560;10.246;2022-08-30T08:35:32;101734.41;;;21.58;77.68
18749;BME280;9503;53.560;10.246;2022-08-30T08:37:59;101738.88;;;21.64;77.39
18749;BME280;9503;53.560;10.246;2022-08-30T08:40:27;101741.00;;;21.85;77.27
18749;BME280;9503;53.560;10.246;2022-08-30T08:43:01;101751.75;;;22.03;76.53
18749;BME280;9503;53.560;10.246;2022-08-30T08:45:41;101745.63;;;21.52;78.42
18749;BME280;9503;53.560;10.246;2022-08-30T08:48:25;101744.13;;;22.12;76.24
18749;BME280;9503;53.560;10.246;2022-08-30T08:50:54;101742.50;;;22.19;74.13
18749;BME280;9503;53.560;10.246;2022-08-30T08:53:39;101743.19;;;22.09;74.68
18749;BME280;9503;53.560;10.246;2022-08-30T08:56:12;101743.59;;;21.83;75.53
18749;BME280;9503;53.560;10.246;2022-08-30T08:58:42;101745.06;;;21.69;76.88
18749;BME280;9503;53.560;10.246;2022-08-30T09:01:11;101741.72;;;21.76;76.14
18749;BME280;9503;53.560;10.246;2022-08-30T09:03:39;101743.88;;;22.00;75.11
18749;BME280;9503;53.560;10.246;2022-08-30T09:06:19;101739.75;;;21.64;76.50
18749;BME280;9503;53.560;10.246;2022-08-30T09:08:48;101745.81;;;21.63;77.01
18749;BME280;9503;53.560;10.246;2022-08-30T09:11:21;101745.66;;;22.02;76.69
18749;BME280;9503;53.560;10.246;2022-08-30T09:13:49;101742.72;;;21.83;76.12
18749;BME280;9503;53.560;10.246;2022-08-30T09:16:47;101742.00;;;21.91;74.80
18749;BME280;9503;53.560;10.246;2022-08-30T09:19:31;101741.84;;;21.82;75.57
18749;BME280;9503;53.560;10.246;2022-08-30T09:22:00;101739.56;;;21.54;76.67
18749;BME280;9503;53.560;10.246;2022-08-30T09:24:36;101742.09;;;21.50;77.33
18749;BME280;9503;53.560;10.246;2022-08-30T09:27:14;101748.78;;;20.98;78.38
18749;BME280;9503;53.560;10.246;2022-08-30T09:29:50;101743.47;;;21.32;78.21
18749;BME280;9503;53.560;10.246;2022-08-30T09:32:25;101754.44;;;21.17;77.65
18749;BME280;9503;53.560;10.246;2022-08-30T09:34:54;101748.50;;;21.25;77.43
18749;BME280;9503;53.560;10.246;2022-08-30T09:37:27;101742.91;;;21.48;77.10
18749;BME280;9503;53.560;10.246;2022-08-30T09:39:55;101741.66;;;22.20;75.76
18749;BME280;9503;53.560;10.246;2022-08-30T09:42:25;101754.53;;;22.11;73.73
18749;BME280;9503;53.560;10.246;2022-08-30T09:44:54;101745.56;;;21.96;74.03
18749;BME280;9503;53.560;10.246;2022-08-30T09:47:36;101750.72;;;21.93;74.82
18749;BME280;9503;53.560;10.246;2022-08-30T09:50:10;101757.41;;;21.77;74.44
18749;BME280;9503;53.560;10.246;2022-08-30T09:53:02;101747.78;;;21.75;72.40
18749;BME280;9503;53.560;10.246;2022-08-30T09:55:47;101755.91;;;21.45;70.66
18749;BME280;9503;53.560;10.246;2022-08-30T09:58:24;101752.81;;;21.66;70.68
18749;BME280;9503;53.560;10.246;2022-08-30T10:01:06;101740.94;;;21.36;71.14
18749;BME280;9503;53.560;10.246;2022-08-30T10:03:38;101748.16;;;21.49;70.53
18749;BME280;9503;53.560;10.246;2022-08-30T10:06:17;101757.91;;;22.05;69.46
18749;BME280;9503;53.560;10.246;2022-08-30T10:08:55;101756.72;;;22.34;67.78
18749;BME280;9503;53.560;10.246;2022-08-30T10:11:27;101759.94;;;22.74;66.11
18749;BME280;9503;53.560;10.246;2022-08-30T10:14:06;101761.41;;;23.14;64.43
18749;BME280;9503;53.560;10.246;2022-08-30T10:16:43;101766.44;;;22.45;64.40
18749;BME280;9503;53.560;10.246;2022-08-30T10:19:23;101761.97;;;22.38;64.22
18749;BME280;9503;53.560;10.246;2022-08-30T10:22:02;101770.19;;;22.62;64.13
18749;BME280;9503;53.560;10.246;2022-08-30T10:24:33;101763.84;;;23.02;63.67
18749;BME280;9503;53.560;10.246;2022-08-30T10:27:05;101765.41;;;22.89;64.05
18749;BME280;9503;53.560;10.246;2022-08-30T10:29:38;101766.00;;;22.70;63.99
18749;BME280;9503;53.560;10.246;2022-08-30T10:34:40;101763.66;;;22.34;64.81
18749;BME280;9503;53.560;10.246;2022-08-30T10:37:15;101765.41;;;22.33;65.13
18749;BME280;9503;53.560;10.246;2022-08-30T10:39:46;101758.78;;;22.05;66.24
18749;BME280;9503;53.560;10.246;2022-08-30T10:42:17;101759.53;;;21.98;67.47
18749;BME280;9503;53.560;10.246;2022-08-30T10:44:48;101756.63;;;22.31;66.63
18749;BME280;9503;53.560;10.246;2022-08-30T10:47:22;101769.50;;;21.74;68.20
18749;BME280;9503;53.560;10.246;2022-08-30T10:50:00;101751.84;;;22.06;67.48
18749;BME280;9503;53.560;10.246;2022-08-30T10:52:33;101753.16;;;22.32;66.69
18749;BME280;9503;53.560;10.246;2022-08-30T10:55:06;101751.72;;;22.50;66.99
18749;BME280;9503;53.560;10.246;2022-08-30T10:57:33;101750.31;;;23.35;64.55
18749;BME280;9503;53.560;10.246;2022-08-30T11:00:05;101756.00;;;23.02;65.83
18749;BME280;9503;53.560;10.246;2022-08-30T11:02:55;101756.13;;;23.13;66.08
18749;BME280;9503;53.560;10.246;2022-08-30T11:05:46;101754.78;;;22.24;69.50
18749;BME280;9503;53.560;10.246;2022-08-30T11:08:31;101757.53;;;21.84;72.46
18749;BME280;9503;53.560;10.246;2022-08-30T11:11:11;101753.69;;;21.66;74.03
18749;BME280;9503;53.560;10.246;2022-08-30T11:13:44;101746.53;;;21.55;75.19
18749;BME280;9503;53.560;10.246;2022-08-30T11:16:13;101750.75;;;21.49;75.10
18749;BME280;9503;53.560;10.246;2022-08-30T11:18:44;101749.16;;;21.56;75.24
18749;BME280;9503;53.560;10.246;2022-08-30T11:21:22;101744.31;;;21.74;74.28
18749;BME280;9503;53.560;10.246;2022-08-30T11:24:08;101740.97;;;21.83;74.31
18749;BME280;9503;53.560;10.246;2022-08-30T11:26:55;101748.88;;;22.36;72.79
18749;BME280;9503;53.560;10.246;2022-08-30T11:29:33;101747.03;;;22.29;72.09
18749;BME280;9503;53.560;10.246;2022-08-30T11:35:00;101750.66;;;22.39;71.58
18749;BME280;9503;53.560;10.246;2022-08-30T11:37:34;101748.75;;;22.84;68.73
18749;BME280;9503;53.560;10.246;2022-08-30T11:40:07;101743.88;;;23.07;69.07
18749;BME280;9503;53.560;10.246;2022-08-30T11:42:39;101747.84;;;22.84;69.10
18749;BME280;9503;53.560;10.246;2022-08-30T11:48:42;101738.69;;;22.54;68.94
18749;BME280;9503;53.560;10.246;2022-08-30T11:54:05;101742.16;;;23.82;64.56
18749;BME280;9503;53.560;10.246;2022-08-30T11:56:47;101735.41;;;23.28;65.57
18749;BME280;9503;53.560;10.246;2022-08-30T11:59:24;101736.16;;;23.20;65.83
18749;BME280;9503;53.560;10.246;2022-08-30T12:01:56;101730.22;;;22.69;66.90
18749;BME280;9503;53.560;10.246;2022-08-30T12:04:34;101743.03;;;22.51;67.79
18749;BME280;9503;53.560;10.246;2022-08-30T12:07:05;101742.56;;;22.78;67.19
18749;BME280;9503;53.560;10.246;2022-08-30T12:10:00;101740.09;;;22.87;66.88
18749;BME280;9503;53.560;10.246;2022-08-30T12:12:50;101736.81;;;23.00;66.79
18749;BME280;9503;53.560;10.246;2022-08-30T12:15:50;101732.97;;;22.78;66.07
18749;BME280;9503;53.560;10.246;2022-08-30T12:18:26;101736.75;;;22.97;65.38
18749;BME280;9503;53.560;10.246;2022-08-30T12:20:57;101740.28;;;22.99;65.95
18749;BME280;9503;53.560;10.246;2022-08-30T12:23:34;101730.00;;;23.14;64.92
18749;BME280;9503;53.560;10.246;2022-08-30T12:26:11;101730.34;;;22.77;65.60
18749;BME280;9503;53.560;10.246;2022-08-30T12:28:39;101724.03;;;23.28;64.64
18749;BME280;9503;53.560;10.246;2022-08-30T12:31:09;101729.84;;;23.04;65.51
18749;BME280;9503;53.560;10.246;2022-08-30T12:33:40;101721.22;;;23.09;64.96
18749;BME280;9503;53.560;10.246;2022-08-30T12:36:12;101730.72;;;23.73;65.02
18749;BME280;9503;53.560;10.246;2022-08-30T12:38:38;101719.97;;;23.51;63.45
18749;BME280;9503;53.560;10.246;2022-08-30T12:41:05;101724.59;;;22.99;65.00
18749;BME280;9503;53.560;10.246;2022-08-30T12:43:35;101718.97;;;23.40;63.14
18749;BME280;9503;53.560;10.246;2022-08-30T12:46:07;101719.28;;;22.96;63.87
18749;BME280;9503;53.560;10.246;2022-08-30T12:48:36;101712.75;;;22.67;63.89
18749;BME280;9503;53.560;10.246;2022-08-30T12:51:04;101718.44;;;22.40;64.19
18749;BME280;9503;53.560;10.246;2022-08-30T12:53:33;101715.34;;;22.09;64.60
18749;BME280;9503;53.560;10.246;2022-08-30T12:56:05;101709.44;;;22.21;65.02
18749;BME280;9503;53.560;10.246;2022-08-30T12:58:42;101712.81;;;22.14;64.59
18749;BME280;9503;53.560;10.246;2022-08-30T13:01:23;101711.44;;;22.37;64.04
18749;BME280;9503;53.560;10.246;2022-08-30T13:03:57;101717.63;;;22.42;64.70
18749;BME280;9503;53.560;10.246;2022-08-30T13:06:39;101713.94;;;22.31;64.93
18749;BME280;9503;53.560;10.246;2022-08-30T13:09:09;101710.31;;;22.20;64.18
18749;BME280;9503;53.560;10.246;2022-08-30T13:11:36;101714.03;;;22.34;63.60
18749;BME280;9503;53.560;10.246;2022-08-30T13:14:27;101713.63;;;22.67;63.34
18749;BME280;9503;53.560;10.246;2022-08-30T13:17:06;101708.34;;;23.26;62.48
18749;BME280;9503;53.560;10.246;2022-08-30T13:19:35;101713.13;;;23.62;60.52